CYKF

Waterloo Airport

Kitchener, Ontario, Canada
METAR CYKF 250806Z AUTO 11005KT 5SM -RA BR OVC004 09/09 A2992 RMK SLP135
Observed Flight Rules
Apr-25 @ 08:06 UTC (27 minutes ago) Instrument Flight Rules
Wind Visibility Clouds Conditions
110° at 5 knots 5 miles
  • Overcast at 400' AGL
  • Light Rain
  • Mist
Temperatures Readings
Current 9°C / 48°F
Dewpoint 9°C / 48°F
Humidity 100%
Altimeter 29.92" Hg
Pressure 1013.5 hPa
Elevation 317
METAR CYKF 250806Z AUTO 11005KT 5SM -RA BR OVC004 09/09 A2992 RMK SLP135
Observed Flight Rules
Apr-25 @ 08:06 UTC
(27 minutes ago)
LIFR
Wind Visibility
110° at 5 knots 5 miles
Clouds
  • Overcast at 400' AGL
Conditions
  • Light Rain
  • Mist
Temperature Dewpoint
9°C / 48°F 9°C / 48°F
Humidity Altimeter Pressure
100% 29.92" Hg 1013.5 hPa